createdAt,value
2023-01-28T00:01:48.904Z,4.40
2023-01-28T00:04:16.927Z,4.77
2023-01-28T00:06:45.069Z,3.57
2023-01-28T00:09:13.233Z,3.87
2023-01-28T00:11:41.220Z,3.90
2023-01-28T00:14:09.302Z,3.30
2023-01-28T00:16:37.260Z,3.77
2023-01-28T00:19:07.282Z,2.60
2023-01-28T00:21:35.734Z,3.20
2023-01-28T00:24:03.770Z,2.90
2023-01-28T00:26:31.784Z,4.67
2023-01-28T00:28:59.763Z,3.93
2023-01-28T00:31:28.712Z,3.50
2023-01-28T00:33:58.003Z,3.40
2023-01-28T00:36:27.881Z,3.80
2023-01-28T00:38:57.565Z,3.67
2023-01-28T00:41:27.434Z,3.13
2023-01-28T00:43:56.092Z,3.30
2023-01-28T00:46:25.272Z,4.20
2023-01-28T00:48:53.494Z,4.30
2023-01-28T00:51:21.839Z,3.97
2023-01-28T00:53:52.480Z,4.30
2023-01-28T00:56:20.720Z,4.07
2023-01-28T00:58:49.113Z,4.20
2023-01-28T01:01:19.347Z,3.87
2023-01-28T01:03:57.451Z,5.13
2023-01-28T01:06:26.037Z,3.17
2023-01-28T01:08:55.363Z,4.20
2023-01-28T01:11:23.342Z,4.60
2023-01-28T01:13:52.523Z,4.63
2023-01-28T01:16:20.506Z,3.93
2023-01-28T01:18:52.157Z,3.80
2023-01-28T01:21:22.227Z,4.10
2023-01-28T01:23:50.217Z,3.20
2023-01-28T01:26:19.939Z,3.70
2023-01-28T01:28:48.280Z,3.80
2023-01-28T01:31:18.413Z,4.13
2023-01-28T01:33:48.639Z,4.13
2023-01-28T01:36:18.510Z,4.40
2023-01-28T01:38:46.780Z,4.30
2023-01-28T01:41:26.106Z,4.17
2023-01-28T01:43:56.640Z,4.13
2023-01-28T01:46:31.560Z,5.80
2023-01-28T01:49:09.314Z,5.83
2023-01-28T01:51:38.397Z,4.60
2023-01-28T01:54:07.001Z,5.00
2023-01-28T01:56:41.106Z,4.97
2023-01-28T01:59:12.202Z,7.37
2023-01-28T02:01:40.635Z,5.60
2023-01-28T02:04:14.082Z,6.33
2023-01-28T02:06:42.833Z,4.67
2023-01-28T02:09:24.462Z,6.80
2023-01-28T02:11:56.049Z,6.17
2023-01-28T02:14:31.042Z,4.37
2023-01-28T02:17:00.649Z,5.87
2023-01-28T02:19:36.883Z,4.40
2023-01-28T02:22:41.677Z,6.00
2023-01-28T02:25:39.073Z,4.77
2023-01-28T02:28:25.817Z,4.43
2023-01-28T02:30:59.644Z,3.33
2023-01-28T02:33:34.750Z,3.77
2023-01-28T02:36:11.076Z,3.00
2023-01-28T02:38:43.767Z,3.43
2023-01-28T02:41:20.781Z,2.60
2023-01-28T02:43:51.700Z,2.73
2023-01-28T02:46:41.541Z,2.70
2023-01-28T02:49:13.076Z,3.30
2023-01-28T02:51:53.924Z,2.27
2023-01-28T02:54:31.121Z,3.10
2023-01-28T02:57:08.939Z,3.43
2023-01-28T02:59:43.546Z,3.00
2023-01-28T03:02:21.375Z,2.37
2023-01-28T03:04:55.833Z,2.70
2023-01-28T03:07:27.937Z,2.97
2023-01-28T03:09:58.890Z,2.73
2023-01-28T03:12:47.377Z,2.80
2023-01-28T03:15:37.302Z,2.33
2023-01-28T03:18:27.107Z,2.77
2023-01-28T03:21:20.649Z,3.10
2023-01-28T03:24:12.878Z,2.80
2023-01-28T03:27:03.756Z,2.33
2023-01-28T03:29:51.666Z,3.57
2023-01-28T03:32:42.031Z,3.30
2023-01-28T03:35:29.057Z,3.13
2023-01-28T03:37:59.991Z,2.73
2023-01-28T03:40:29.692Z,2.60
2023-01-28T03:42:57.750Z,3.33
2023-01-28T03:45:35.901Z,3.27
2023-01-28T03:48:08.019Z,2.80
2023-01-28T03:50:36.075Z,2.27
2023-01-28T03:53:16.433Z,3.13
2023-01-28T03:55:54.103Z,2.80
2023-01-28T03:58:23.012Z,2.30
2023-01-28T04:00:52.164Z,3.70
2023-01-28T04:03:22.695Z,3.53
2023-01-28T04:06:02.909Z,3.90
2023-01-28T04:08:54.471Z,2.30
2023-01-28T04:11:45.951Z,3.03
2023-01-28T04:14:18.805Z,2.90
2023-01-28T04:16:54.863Z,2.77
2023-01-28T04:19:26.036Z,2.90
2023-01-28T04:21:56.752Z,2.57
2023-01-28T04:24:25.811Z,3.83
2023-01-28T04:26:56.417Z,2.73
2023-01-28T04:29:25.640Z,4.20
2023-01-28T04:31:56.355Z,3.87
2023-01-28T04:34:37.643Z,3.17
2023-01-28T04:37:30.591Z,3.90
2023-01-28T04:39:58.629Z,4.10
2023-01-28T04:42:42.493Z,3.50
2023-01-28T04:45:25.210Z,3.30
2023-01-28T04:48:13.201Z,4.33
2023-01-28T04:51:08.785Z,3.30
2023-01-28T04:53:42.777Z,4.53
2023-01-28T04:56:25.960Z,3.50
2023-01-28T04:58:54.132Z,4.73
2023-01-28T05:01:22.180Z,4.53
2023-01-28T05:03:50.204Z,3.50
2023-01-28T05:06:30.274Z,3.10
2023-01-28T05:09:01.888Z,4.63
2023-01-28T05:11:31.255Z,4.47
2023-01-28T05:14:03.513Z,5.03
2023-01-28T05:16:39.115Z,3.17
2023-01-28T05:19:07.658Z,3.67
2023-01-28T05:21:41.254Z,3.30
2023-01-28T05:24:24.528Z,3.03
2023-01-28T05:26:52.529Z,3.23
2023-01-28T05:29:20.604Z,5.17
2023-01-28T05:31:48.965Z,4.73
2023-01-28T05:34:17.695Z,5.30
2023-01-28T05:36:47.404Z,5.23
2023-01-28T05:39:28.484Z,3.90
2023-01-28T05:41:56.552Z,3.90
2023-01-28T05:44:25.045Z,4.60
2023-01-28T05:47:15.225Z,4.03
2023-01-28T05:49:52.043Z,4.60
2023-01-28T05:52:36.907Z,3.50
2023-01-28T05:55:07.727Z,4.87
2023-01-28T05:57:35.682Z,5.07
2023-01-28T06:00:05.556Z,4.37
2023-01-28T06:02:42.730Z,3.70
2023-01-28T06:05:13.237Z,4.20
2023-01-28T06:07:45.830Z,4.47
2023-01-28T06:10:14.690Z,4.47
2023-01-28T06:12:43.421Z,3.67
2023-01-28T06:15:26.319Z,5.60
2023-01-28T06:18:02.894Z,4.30
2023-01-28T06:20:34.268Z,4.27
2023-01-28T06:23:04.075Z,4.20
2023-01-28T06:25:32.153Z,4.77
2023-01-28T06:28:04.732Z,3.70
2023-01-28T06:30:32.743Z,5.07
2023-01-28T06:33:00.763Z,4.47
2023-01-28T06:35:28.763Z,4.10
2023-01-28T06:37:56.751Z,4.93
2023-01-28T06:40:26.168Z,4.37
2023-01-28T06:42:54.169Z,3.93
2023-01-28T06:45:22.457Z,4.80
2023-01-28T06:47:50.548Z,5.67
2023-01-28T06:50:18.825Z,5.90
2023-01-28T06:52:46.896Z,6.10
2023-01-28T06:55:14.988Z,7.10
2023-01-28T06:57:45.495Z,6.20
2023-01-28T07:00:15.828Z,6.20
2023-01-28T07:02:44.347Z,5.70
2023-01-28T07:05:12.656Z,6.00
2023-01-28T07:07:42.025Z,7.60
2023-01-28T07:10:11.641Z,5.03
2023-01-28T07:12:40.206Z,5.90
2023-01-28T07:15:11.873Z,6.40
2023-01-28T07:17:41.259Z,7.33
2023-01-28T07:20:11.930Z,4.00
2023-01-28T07:22:41.330Z,4.93
2023-01-28T07:25:10.916Z,8.03
2023-01-28T07:27:38.962Z,4.50
2023-01-28T07:30:09.760Z,7.40
2023-01-28T07:32:37.738Z,5.30
2023-01-28T07:35:06.386Z,5.80
2023-01-28T07:37:34.377Z,6.70
2023-01-28T07:40:02.347Z,5.40
2023-01-28T07:42:30.326Z,6.43
2023-01-28T07:45:02.409Z,6.60
2023-01-28T07:47:31.816Z,5.97
2023-01-28T07:49:59.882Z,6.07
2023-01-28T07:52:27.828Z,7.00
2023-01-28T07:54:55.863Z,5.30
2023-01-28T07:57:24.235Z,7.27
2023-01-28T07:59:52.344Z,7.00
2023-01-28T08:02:20.377Z,4.87
2023-01-28T08:04:50.172Z,7.03
2023-01-28T08:07:18.497Z,6.03
2023-01-28T08:09:46.485Z,6.30
2023-01-28T08:12:14.531Z,9.17
2023-01-28T08:14:42.598Z,5.60
2023-01-28T08:17:10.538Z,6.70
2023-01-28T08:19:38.517Z,8.10
2023-01-28T08:22:07.849Z,8.10
2023-01-28T08:24:35.816Z,6.20
2023-01-28T08:27:04.654Z,6.57
2023-01-28T08:29:33.442Z,7.17
2023-01-28T08:32:01.363Z,5.27
2023-01-28T08:34:29.373Z,5.40
2023-01-28T08:36:57.456Z,5.80
2023-01-28T08:39:26.855Z,6.00
2023-01-28T08:41:54.791Z,5.13
2023-01-28T08:44:22.790Z,4.93
2023-01-28T08:46:50.760Z,7.63
2023-01-28T08:49:18.822Z,5.40
2023-01-28T08:51:46.844Z,6.50
2023-01-28T08:54:14.969Z,4.50
2023-01-28T08:56:44.944Z,5.50
2023-01-28T08:59:13.011Z,5.27
2023-01-28T09:01:41.019Z,5.10
2023-01-28T09:04:09.143Z,6.70
2023-01-28T09:06:37.142Z,5.13
2023-01-28T09:09:05.488Z,5.53
2023-01-28T09:11:33.516Z,4.87
2023-01-28T09:14:02.858Z,5.40
2023-01-28T09:16:30.801Z,6.53
2023-01-28T09:18:58.781Z,5.33
2023-01-28T09:21:26.711Z,6.20
2023-01-28T09:23:56.831Z,5.30
2023-01-28T09:26:25.174Z,6.57
2023-01-28T09:28:53.122Z,5.97
2023-01-28T09:31:22.602Z,5.80
2023-01-28T09:33:56.528Z,6.47
2023-01-28T09:36:24.739Z,5.10
2023-01-28T09:38:53.403Z,5.13
2023-01-28T09:41:27.406Z,6.40
2023-01-28T09:44:05.611Z,5.67
2023-01-28T09:46:37.768Z,5.03
2023-01-28T09:49:16.933Z,5.50
2023-01-28T09:51:49.873Z,5.40
2023-01-28T09:54:27.930Z,6.17
2023-01-28T09:57:05.242Z,7.63
2023-01-28T09:59:36.295Z,7.07
2023-01-28T10:02:23.379Z,4.60
2023-01-28T10:04:59.771Z,6.80
2023-01-28T10:07:37.349Z,6.30
2023-01-28T10:10:12.278Z,6.00
2023-01-28T10:13:04.950Z,6.17
2023-01-28T10:16:08.718Z,4.80
2023-01-28T10:18:45.301Z,6.27
2023-01-28T10:21:19.781Z,6.50
2023-01-28T10:23:55.487Z,6.40
2023-01-28T10:26:25.463Z,5.80
2023-01-28T10:28:58.800Z,5.77
2023-01-28T10:31:33.195Z,6.73
2023-01-28T10:34:04.410Z,6.37
2023-01-28T10:36:32.401Z,5.47
2023-01-28T10:39:00.456Z,6.57
2023-01-28T10:41:28.467Z,6.33
2023-01-28T10:43:58.489Z,6.23
2023-01-28T10:46:31.329Z,7.23
2023-01-28T10:49:07.176Z,5.87
2023-01-28T10:51:37.535Z,5.40
2023-01-28T10:54:22.022Z,5.40
2023-01-28T10:56:53.135Z,4.83
2023-01-28T10:59:24.484Z,5.47
2023-01-28T11:01:54.426Z,6.53
2023-01-28T11:04:27.974Z,6.60
2023-01-28T11:07:01.197Z,7.00
2023-01-28T11:09:31.853Z,5.80
2023-01-28T11:12:00.414Z,5.30
2023-01-28T11:14:29.074Z,4.43
2023-01-28T11:16:59.386Z,4.77
2023-01-28T11:19:35.841Z,4.50
2023-01-28T11:22:04.398Z,4.47
2023-01-28T11:24:34.339Z,4.20
2023-01-28T11:27:13.458Z,6.10
2023-01-28T11:29:42.730Z,6.07
2023-01-28T11:32:19.172Z,4.60
2023-01-28T11:34:53.598Z,5.70
2023-01-28T11:37:23.512Z,7.27
2023-01-28T11:40:02.732Z,4.20
2023-01-28T11:42:32.415Z,5.60
2023-01-28T11:45:00.453Z,5.00
2023-01-28T11:47:41.376Z,5.43
2023-01-28T11:50:33.196Z,4.57
2023-01-28T11:53:16.751Z,4.37
2023-01-28T11:55:55.692Z,5.70
2023-01-28T11:58:38.685Z,6.20
2023-01-28T12:01:13.245Z,6.83
2023-01-28T12:04:02.783Z,6.77
2023-01-28T12:06:52.304Z,5.90
2023-01-28T12:09:29.006Z,6.47
2023-01-28T12:12:12.853Z,6.20
2023-01-28T12:14:58.950Z,6.20
2023-01-28T12:17:39.197Z,6.13
2023-01-28T12:20:18.696Z,5.47
2023-01-28T12:23:22.025Z,5.27
2023-01-28T12:26:07.020Z,5.77
2023-01-28T12:28:58.738Z,7.30
2023-01-28T12:32:08.108Z,7.97
2023-01-28T12:34:55.168Z,7.07
2023-01-28T12:37:33.111Z,5.43
2023-01-28T12:40:17.084Z,7.70
2023-01-28T12:42:52.894Z,6.10
2023-01-28T12:45:28.730Z,7.20
2023-01-28T12:48:02.254Z,8.00
2023-01-28T12:50:34.582Z,7.67
2023-01-28T12:53:10.580Z,7.30
2023-01-28T12:55:43.433Z,8.27
2023-01-28T12:58:19.314Z,8.50
2023-01-28T13:00:51.584Z,8.60
2023-01-28T13:03:27.915Z,9.13
2023-01-28T13:06:00.063Z,9.23
2023-01-28T13:08:29.653Z,8.50
2023-01-28T13:10:59.847Z,9.23
2023-01-28T13:13:33.564Z,8.30
2023-01-28T13:16:02.857Z,8.50
2023-01-28T13:18:36.194Z,7.47
2023-01-28T13:21:06.472Z,7.67
2023-01-28T13:23:42.870Z,6.40
2023-01-28T13:26:27.595Z,7.83
2023-01-28T13:29:10.641Z,6.83
2023-01-28T13:31:41.123Z,8.07
2023-01-28T13:34:26.573Z,9.40
2023-01-28T13:36:55.494Z,6.70
2023-01-28T13:39:26.143Z,6.93
2023-01-28T13:41:56.535Z,7.17
2023-01-28T13:44:31.410Z,9.30
2023-01-28T13:47:01.943Z,7.27
2023-01-28T13:49:34.708Z,7.13
2023-01-28T13:52:09.869Z,8.07
2023-01-28T13:54:41.816Z,6.93
2023-01-28T13:57:39.411Z,7.57
2023-01-28T14:00:23.279Z,7.77
2023-01-28T14:03:39.477Z,6.30
2023-01-28T14:06:29.778Z,6.83
2023-01-28T14:09:13.524Z,7.23
2023-01-28T14:12:09.011Z,6.80
2023-01-28T14:15:01.399Z,7.90
2023-01-28T14:17:43.161Z,9.03
2023-01-28T14:20:19.423Z,7.60
2023-01-28T14:22:47.945Z,7.57
2023-01-28T14:25:19.837Z,8.73
2023-01-28T14:27:53.649Z,8.33
2023-01-28T14:30:26.417Z,9.13
2023-01-28T14:32:56.508Z,7.60
2023-01-28T14:35:29.479Z,7.50
2023-01-28T14:37:58.813Z,7.67
2023-01-28T14:40:29.557Z,8.37
2023-01-28T14:42:58.934Z,6.73
2023-01-28T14:45:48.432Z,7.80
2023-01-28T14:48:26.313Z,8.20
2023-01-28T14:51:05.919Z,8.83
2023-01-28T14:53:49.091Z,9.30
2023-01-28T14:56:25.540Z,7.63
2023-01-28T14:58:59.806Z,7.03
2023-01-28T15:01:30.408Z,8.93
2023-01-28T15:03:59.862Z,7.00
2023-01-28T15:06:35.692Z,7.07
2023-01-28T15:09:13.718Z,7.73
2023-01-28T15:11:45.213Z,8.27
2023-01-28T15:14:20.160Z,7.60
2023-01-28T15:16:50.156Z,6.27
2023-01-28T15:19:26.877Z,8.43
2023-01-28T15:21:57.604Z,9.17
2023-01-28T15:24:26.041Z,7.83
2023-01-28T15:26:54.258Z,8.40
2023-01-28T15:29:25.986Z,9.43
2023-01-28T15:31:54.589Z,7.23
2023-01-28T15:34:30.015Z,7.53
2023-01-28T15:36:58.553Z,8.30
2023-01-28T15:39:28.407Z,6.93
2023-01-28T15:41:59.254Z,6.30
2023-01-28T15:44:33.261Z,8.43
2023-01-28T15:47:03.389Z,7.60
2023-01-28T15:49:36.864Z,8.57
2023-01-28T15:52:05.449Z,7.33
2023-01-28T15:54:33.488Z,8.23
2023-01-28T15:57:11.317Z,10.00
2023-01-28T15:59:39.342Z,9.53
2023-01-28T16:02:22.120Z,9.90
2023-01-28T16:05:02.764Z,7.23
2023-01-28T16:07:33.062Z,8.10
2023-01-28T16:10:04.649Z,8.53
2023-01-28T16:12:32.624Z,7.07
2023-01-28T16:15:03.025Z,7.73
2023-01-28T16:17:39.431Z,7.80
2023-01-28T16:20:19.634Z,6.40
2023-01-28T16:22:47.772Z,9.57
2023-01-28T16:25:28.496Z,9.63
2023-01-28T16:27:56.830Z,8.50
2023-01-28T16:30:25.063Z,8.97
2023-01-28T16:32:55.345Z,10.10
2023-01-28T16:35:34.420Z,7.23
2023-01-28T16:38:16.668Z,6.33
2023-01-28T16:40:45.571Z,7.20
2023-01-28T16:43:15.892Z,7.30
2023-01-28T16:45:44.378Z,8.30
2023-01-28T16:48:12.491Z,6.30
2023-01-28T16:50:43.607Z,7.07
2023-01-28T16:53:21.161Z,7.40
2023-01-28T16:55:51.008Z,7.37
2023-01-28T16:58:23.342Z,6.00
2023-01-28T17:00:51.358Z,8.17
2023-01-28T17:03:19.794Z,7.70
2023-01-28T17:05:49.225Z,9.13
2023-01-28T17:08:17.231Z,9.40
2023-01-28T17:10:45.809Z,7.37
2023-01-28T17:13:13.793Z,7.00
2023-01-28T17:15:42.669Z,6.50
2023-01-28T17:18:11.322Z,6.77
2023-01-28T17:20:40.394Z,6.10
2023-01-28T17:23:13.364Z,7.53
2023-01-28T17:25:41.741Z,6.17
2023-01-28T17:28:11.247Z,6.77
2023-01-28T17:30:41.570Z,6.30
2023-01-28T17:33:11.300Z,6.73
2023-01-28T17:35:39.357Z,5.33
2023-01-28T17:38:08.745Z,6.67
2023-01-28T17:40:36.914Z,8.17
2023-01-28T17:43:04.903Z,6.47
2023-01-28T17:45:33.267Z,8.40
2023-01-28T17:48:01.304Z,5.90
2023-01-28T17:50:29.337Z,7.23
2023-01-28T17:52:58.505Z,6.57
2023-01-28T17:55:27.938Z,6.90
2023-01-28T17:57:55.948Z,8.83
2023-01-28T18:00:26.175Z,6.33
2023-01-28T18:02:54.249Z,7.00
2023-01-28T18:05:22.884Z,8.10
2023-01-28T18:07:52.127Z,7.70
2023-01-28T18:10:20.489Z,8.03
2023-01-28T18:12:49.904Z,5.53
2023-01-28T18:15:18.337Z,7.17
2023-01-28T18:17:46.561Z,6.10
2023-01-28T18:20:14.644Z,6.60
2023-01-28T18:22:42.633Z,6.70
2023-01-28T18:25:16.040Z,6.50
2023-01-28T18:27:44.534Z,6.30
2023-01-28T18:30:16.310Z,7.07
2023-01-28T18:32:44.381Z,7.47
2023-01-28T18:35:12.559Z,7.20
2023-01-28T18:37:41.115Z,7.90
2023-01-28T18:40:10.485Z,5.27
2023-01-28T18:42:38.490Z,6.87
2023-01-28T18:45:07.656Z,6.80
2023-01-28T18:47:37.028Z,8.67
2023-01-28T18:50:05.853Z,7.67
2023-01-28T18:52:33.841Z,5.57
2023-01-28T18:55:01.820Z,7.50
2023-01-28T18:57:30.144Z,6.47
2023-01-28T18:59:58.183Z,6.03
2023-01-28T19:02:26.272Z,6.10
2023-01-28T19:04:57.174Z,5.70
2023-01-28T19:07:25.316Z,6.90
2023-01-28T19:09:53.314Z,6.00
2023-01-28T19:12:22.492Z,5.40
2023-01-28T19:14:50.745Z,7.43
2023-01-28T19:17:18.766Z,5.30
2023-01-28T19:19:46.762Z,6.90
2023-01-28T19:22:16.524Z,6.50
2023-01-28T19:24:44.803Z,6.27
2023-01-28T19:27:12.800Z,6.10
2023-01-28T19:29:40.881Z,4.70
2023-01-28T19:32:08.885Z,6.20
2023-01-28T19:34:36.874Z,6.60
2023-01-28T19:37:04.866Z,6.40
2023-01-28T19:39:34.261Z,4.97
2023-01-28T19:42:02.274Z,8.00
2023-01-28T19:44:30.378Z,5.77
2023-01-28T19:46:59.339Z,4.83
2023-01-28T19:49:27.498Z,5.73
2023-01-28T19:51:55.466Z,6.50
2023-01-28T19:54:23.425Z,10.77
2023-01-28T19:56:52.928Z,8.73
2023-01-28T19:59:20.918Z,7.77
2023-01-28T20:01:49.055Z,7.90
2023-01-28T20:04:17.099Z,6.17
2023-01-28T20:06:45.140Z,5.67
2023-01-28T20:09:17.162Z,5.30
2023-01-28T20:11:45.152Z,6.87
2023-01-28T20:14:16.073Z,5.30
2023-01-28T20:16:44.107Z,6.47
2023-01-28T20:19:16.352Z,6.33
2023-01-28T20:21:44.451Z,7.83
2023-01-28T20:24:13.483Z,6.63
2023-01-28T20:26:43.692Z,6.57
2023-01-28T20:29:15.034Z,5.47
2023-01-28T20:31:43.429Z,6.30
2023-01-28T20:34:15.298Z,6.07
2023-01-28T20:36:44.006Z,5.10
2023-01-28T20:39:12.127Z,6.13
2023-01-28T20:41:40.150Z,6.57
2023-01-28T20:44:08.219Z,5.50
2023-01-28T20:46:38.827Z,6.50
2023-01-28T20:49:07.182Z,5.50
2023-01-28T20:51:36.192Z,4.73
2023-01-28T20:54:04.896Z,6.00
2023-01-28T20:56:33.187Z,6.30
2023-01-28T20:59:03.378Z,6.50
2023-01-28T21:01:34.344Z,6.17
2023-01-28T21:04:04.212Z,4.60
2023-01-28T21:06:32.382Z,8.13
2023-01-28T21:09:00.865Z,5.30
2023-01-28T21:11:29.065Z,8.23
2023-01-28T21:13:57.724Z,5.53
2023-01-28T21:16:26.198Z,6.47
2023-01-28T21:18:54.197Z,6.17
2023-01-28T21:21:26.730Z,5.00
2023-01-28T21:23:57.641Z,6.30
2023-01-28T21:26:25.854Z,4.37
2023-01-28T21:28:53.946Z,8.03
2023-01-28T21:31:25.214Z,5.77
2023-01-28T21:33:55.408Z,5.43
2023-01-28T21:36:26.102Z,5.27
2023-01-28T21:38:55.325Z,4.53
2023-01-28T21:41:23.742Z,4.83
2023-01-28T21:43:53.512Z,7.53
2023-01-28T21:46:21.674Z,4.40
2023-01-28T21:48:49.779Z,4.67
2023-01-28T21:51:35.569Z,6.40
2023-01-28T21:54:05.916Z,5.60
2023-01-28T21:56:33.990Z,6.40
2023-01-28T21:59:19.974Z,5.30
2023-01-28T22:01:48.658Z,5.50
2023-01-28T22:04:16.939Z,5.87
2023-01-28T22:06:45.298Z,5.10
2023-01-28T22:09:14.813Z,4.30
2023-01-28T22:11:44.077Z,5.07
2023-01-28T22:14:12.359Z,5.90
2023-01-28T22:16:40.681Z,8.30
2023-01-28T22:19:08.997Z,4.90
2023-01-28T22:21:41.002Z,5.00
2023-01-28T22:24:11.305Z,4.90
2023-01-28T22:26:41.234Z,4.80
2023-01-28T22:29:09.916Z,7.13
2023-01-28T22:31:38.349Z,4.80
2023-01-28T22:34:06.627Z,6.60
2023-01-28T22:36:35.370Z,6.20
2023-01-28T22:39:04.399Z,7.40
2023-01-28T22:41:32.515Z,4.10
2023-01-28T22:44:03.741Z,6.77
2023-01-28T22:46:33.346Z,5.40
2023-01-28T22:49:01.563Z,5.60
2023-01-28T22:51:32.076Z,6.90
2023-01-28T22:54:00.437Z,5.70
2023-01-28T22:56:30.011Z,5.40
2023-01-28T22:58:59.081Z,4.30
2023-01-28T23:01:28.758Z,5.70
2023-01-28T23:03:57.155Z,6.33
2023-01-28T23:06:27.014Z,5.73
2023-01-28T23:08:56.190Z,5.03
2023-01-28T23:11:28.162Z,6.27
2023-01-28T23:14:16.504Z,5.10
2023-01-28T23:17:04.145Z,4.87
2023-01-28T23:19:50.079Z,6.90
2023-01-28T23:22:39.876Z,6.20
2023-01-28T23:25:08.657Z,6.10
2023-01-28T23:27:36.687Z,9.33
2023-01-28T23:30:05.737Z,6.07
2023-01-28T23:32:35.053Z,6.13
2023-01-28T23:35:03.043Z,6.13
2023-01-28T23:37:30.981Z,5.90
2023-01-28T23:39:59.816Z,5.90
2023-01-28T23:42:27.880Z,3.80
2023-01-28T23:44:55.861Z,8.47
2023-01-28T23:47:23.897Z,5.90
2023-01-28T23:49:53.237Z,4.73
2023-01-28T23:52:21.255Z,6.57
2023-01-28T23:54:49.304Z,6.80
2023-01-28T23:57:17.317Z,5.00
2023-01-28T23:59:45.324Z,6.30
